Wolf Creek Pass, CO

8:06 PM MDT on September 14, 2014 (GMT -0600)
Wolf Creek Pass | Change Station
CLOSE
Current Station
Airport
Location: Wolf Creek Pass,
Elevation: 11759 ft
Nearby Weather Stations

Elev 11759 ft 37.45 °N, 106.80 °W | Updated 7 minutes ago

Partly Cloudy
Partly Cloudy
46 °F
Feels Like 44 °F
N
5
Wind Variable Wind from NE

Today
High -- | Low -- °F
--% Chance of Precip.
Yesterday
High -- | Low -- °F
Precip. -- in
6:48 AM 7:16 PM
Waning Gibbous, 60% visible
Pressure 30.57 in
Visibility 10.0 miles
Clouds Scattered Clouds 6500 ft
Windchill 44 °F
Dew Point 30 °F
Humidity 53%
Rainfall 0.00 in
Snow Depth 0 in , 0 in , 0 in
UV 0 out of 12
Pollen 5.80 out of 12
Air Quality Not available.
Flu Activity Not available.
METAR KCPW 150159Z AUTO 05004KT 10SM SCT065 08/M01 A3057 RMK AO2

More Conditions Fewer Conditions

Pressure 30.57 in
Visibility 10.0 miles
Clouds Scattered Clouds 6500 ft
Windchill 44 °F
Dew Point 30 °F
Humidity 53%
Rainfall 0.00 in
Snow Depth 0 in , 0 in , 0 in
UV 0 out of 12
Pollen 5.80 out of 12
Air Quality Not available.
Flu Activity Not available.
METAR KCPW 150159Z AUTO 05004KT 10SM SCT065 08/M01 A3057 RMK AO2

More Conditions Fewer Conditions

10-Day Weather Forecast

Almanac

Astronomy

Sep. 14, 2014 Rise Set
Actual Time 6:48 AM MDT 7:16 PM MDT
Civil Twilight 6:22 AM MDT 7:42 PM MDT
Nautical Twilight 5:51 AM MDT 8:13 PM MDT
Astronomical Twilight 5:19 AM MDT 8:44 PM MDT
Moon 11:18 PM MDT (9/14) 12:50 PM MDT (9/14)
Length of Visible Light 13h 20m
Length of Day
12h 27m
Tomorrow will be 2m 23s shorter.
Waning Gibbous, 60% of the Moon is Illuminated
Today
Waning Gibbous
Sep 15
Last Quarter
Sep 24
New
Oct 1
First Quarter
Oct 8
Full

Today's Extremes

State Highs State Lows

Community

WunderPhotos

Upload Photos

1,753,371 photos uploaded!

Nearby

Snow Depth

Station Depth Elevation
Red Mountain Pass 0 in 11150 ft
North Lost Trail 0 in 9200 ft
Arapaho Ridge 0 in 10960 ft
Niwot 0 in 9910 ft
Willow Creek Pass 0 in 9540 ft

Earthquake Activity

City Distance Mag. Time & Date
No recent earthquake activity has been reported nearby.
Minimum magnitude displayed is 2.5.

Coastal Water Temperatures

Place Temperature
No Stations Reporting

Nearby Weather Stations